sensor_id;sensor_type;location;lat;lon;timestamp;temperature;humidity
4376;DHT22;2202;50.866;12.750;2023-12-14T00:01:49;4.50;98.30
4376;DHT22;2202;50.866;12.750;2023-12-14T00:04:17;4.40;98.20
4376;DHT22;2202;50.866;12.750;2023-12-14T00:06:44;4.40;97.90
4376;DHT22;2202;50.866;12.750;2023-12-14T00:09:11;4.30;97.80
4376;DHT22;2202;50.866;12.750;2023-12-14T00:11:38;4.20;97.50
4376;DHT22;2202;50.866;12.750;2023-12-14T00:14:06;4.20;97.60
4376;DHT22;2202;50.866;12.750;2023-12-14T00:16:33;4.20;97.60
4376;DHT22;2202;50.866;12.750;2023-12-14T00:19:00;4.20;97.60
4376;DHT22;2202;50.866;12.750;2023-12-14T00:21:28;4.10;97.70
4376;DHT22;2202;50.866;12.750;2023-12-14T00:23:55;4.10;97.80
4376;DHT22;2202;50.866;12.750;2023-12-14T00:26:22;4.10;97.90
4376;DHT22;2202;50.866;12.750;2023-12-14T00:28:49;4.10;97.90
4376;DHT22;2202;50.866;12.750;2023-12-14T00:31:16;4.10;98.10
4376;DHT22;2202;50.866;12.750;2023-12-14T00:33:43;4.10;98.30
4376;DHT22;2202;50.866;12.750;2023-12-14T00:36:14;4.20;98.30
4376;DHT22;2202;50.866;12.750;2023-12-14T00:38:45;4.20;98.30
4376;DHT22;2202;50.866;12.750;2023-12-14T00:41:12;4.20;98.30
4376;DHT22;2202;50.866;12.750;2023-12-14T00:43:38;4.30;98.40
4376;DHT22;2202;50.866;12.750;2023-12-14T00:46:06;4.30;98.50
4376;DHT22;2202;50.866;12.750;2023-12-14T00:48:33;4.30;98.50
4376;DHT22;2202;50.866;12.750;2023-12-14T00:51:00;4.40;98.60
4376;DHT22;2202;50.866;12.750;2023-12-14T00:53:27;4.40;98.60
4376;DHT22;2202;50.866;12.750;2023-12-14T00:55:55;4.50;98.60
4376;DHT22;2202;50.866;12.750;2023-12-14T00:58:22;4.50;98.60
4376;DHT22;2202;50.866;12.750;2023-12-14T01:00:49;4.60;98.60
4376;DHT22;2202;50.866;12.750;2023-12-14T01:03:16;4.60;98.70
4376;DHT22;2202;50.866;12.750;2023-12-14T01:05:43;4.60;98.70
4376;DHT22;2202;50.866;12.750;2023-12-14T01:08:10;4.70;98.80
4376;DHT22;2202;50.866;12.750;2023-12-14T01:10:35;4.70;98.70
4376;DHT22;2202;50.866;12.750;2023-12-14T01:13:04;4.80;98.80
4376;DHT22;2202;50.866;12.750;2023-12-14T01:15:30;4.80;98.70
4376;DHT22;2202;50.866;12.750;2023-12-14T01:17:57;4.90;98.80
4376;DHT22;2202;50.866;12.750;2023-12-14T01:20:24;4.90;98.70
4376;DHT22;2202;50.866;12.750;2023-12-14T01:22:51;5.00;98.80
4376;DHT22;2202;50.866;12.750;2023-12-14T01:25:18;5.00;98.90
4376;DHT22;2202;50.866;12.750;2023-12-14T01:27:45;5.10;99.10
4376;DHT22;2202;50.866;12.750;2023-12-14T01:30:13;5.20;99.00
4376;DHT22;2202;50.866;12.750;2023-12-14T01:32:40;5.20;99.00
4376;DHT22;2202;50.866;12.750;2023-12-14T01:35:07;5.30;99.00
4376;DHT22;2202;50.866;12.750;2023-12-14T01:37:34;5.30;99.20
4376;DHT22;2202;50.866;12.750;2023-12-14T01:40:01;5.50;99.50
4376;DHT22;2202;50.866;12.750;2023-12-14T01:42:28;5.50;99.50
4376;DHT22;2202;50.866;12.750;2023-12-14T01:44:55;5.50;99.70
4376;DHT22;2202;50.866;12.750;2023-12-14T01:47:23;5.60;99.90
4376;DHT22;2202;50.866;12.750;2023-12-14T01:49:50;5.60;99.90
4376;DHT22;2202;50.866;12.750;2023-12-14T01:52:16;5.60;99.90
4376;DHT22;2202;50.866;12.750;2023-12-14T01:54:43;5.70;99.90
4376;DHT22;2202;50.866;12.750;2023-12-14T01:57:10;5.70;99.90
4376;DHT22;2202;50.866;12.750;2023-12-14T01:59:37;5.70;99.90
4376;DHT22;2202;50.866;12.750;2023-12-14T02:02:04;5.60;99.90
4376;DHT22;2202;50.866;12.750;2023-12-14T02:04:32;5.60;99.90
4376;DHT22;2202;50.866;12.750;2023-12-14T02:06:59;5.60;99.90
4376;DHT22;2202;50.866;12.750;2023-12-14T02:09:26;5.60;99.90
4376;DHT22;2202;50.866;12.750;2023-12-14T02:11:53;5.60;99.90
4376;DHT22;2202;50.866;12.750;2023-12-14T02:14:22;5.50;99.90
4376;DHT22;2202;50.866;12.750;2023-12-14T02:16:49;5.60;99.90
4376;DHT22;2202;50.866;12.750;2023-12-14T02:19:16;5.60;99.90
4376;DHT22;2202;50.866;12.750;2023-12-14T02:21:44;5.60;99.90
4376;DHT22;2202;50.866;12.750;2023-12-14T02:24:12;5.60;99.90
4376;DHT22;2202;50.866;12.750;2023-12-14T02:26:39;5.50;99.90
4376;DHT22;2202;50.866;12.750;2023-12-14T02:29:06;5.60;99.90
4376;DHT22;2202;50.866;12.750;2023-12-14T02:31:33;5.70;99.90
4376;DHT22;2202;50.866;12.750;2023-12-14T02:34:00;5.70;99.90
4376;DHT22;2202;50.866;12.750;2023-12-14T02:36:27;5.70;99.90
4376;DHT22;2202;50.866;12.750;2023-12-14T02:38:54;5.70;99.90
4376;DHT22;2202;50.866;12.750;2023-12-14T02:41:22;5.70;99.90
4376;DHT22;2202;50.866;12.750;2023-12-14T02:43:49;5.70;99.90
4376;DHT22;2202;50.866;12.750;2023-12-14T02:46:16;5.60;99.90
4376;DHT22;2202;50.866;12.750;2023-12-14T02:48:44;5.60;99.90
4376;DHT22;2202;50.866;12.750;2023-12-14T02:51:13;5.60;99.90
4376;DHT22;2202;50.866;12.750;2023-12-14T02:53:41;5.70;99.90
4376;DHT22;2202;50.866;12.750;2023-12-14T02:56:09;5.60;99.90
4376;DHT22;2202;50.866;12.750;2023-12-14T02:58:37;5.70;99.90
4376;DHT22;2202;50.866;12.750;2023-12-14T03:01:04;5.80;99.90
4376;DHT22;2202;50.866;12.750;2023-12-14T03:03:31;5.80;99.90
4376;DHT22;2202;50.866;12.750;2023-12-14T03:05:58;5.80;99.90
4376;DHT22;2202;50.866;12.750;2023-12-14T03:08:25;5.90;99.90
4376;DHT22;2202;50.866;12.750;2023-12-14T03:10:52;5.80;99.90
4376;DHT22;2202;50.866;12.750;2023-12-14T03:13:19;5.80;99.90
4376;DHT22;2202;50.866;12.750;2023-12-14T03:15:47;5.80;99.90
4376;DHT22;2202;50.866;12.750;2023-12-14T03:18:15;5.70;99.90
4376;DHT22;2202;50.866;12.750;2023-12-14T03:20:42;5.80;99.90
4376;DHT22;2202;50.866;12.750;2023-12-14T03:23:09;5.80;99.90
4376;DHT22;2202;50.866;12.750;2023-12-14T03:25:35;5.90;99.90
4376;DHT22;2202;50.866;12.750;2023-12-14T03:28:03;5.70;99.90
4376;DHT22;2202;50.866;12.750;2023-12-14T03:30:29;5.60;99.90
4376;DHT22;2202;50.866;12.750;2023-12-14T03:32:58;5.60;99.90
4376;DHT22;2202;50.866;12.750;2023-12-14T03:35:24;5.60;99.90
4376;DHT22;2202;50.866;12.750;2023-12-14T03:37:51;5.60;99.90
4376;DHT22;2202;50.866;12.750;2023-12-14T03:40:18;5.60;99.90
4376;DHT22;2202;50.866;12.750;2023-12-14T03:42:45;5.60;99.90
4376;DHT22;2202;50.866;12.750;2023-12-14T03:45:12;5.60;99.90
4376;DHT22;2202;50.866;12.750;2023-12-14T03:47:39;5.50;99.90
4376;DHT22;2202;50.866;12.750;2023-12-14T03:50:11;5.50;99.90
4376;DHT22;2202;50.866;12.750;2023-12-14T03:52:38;5.50;99.90
4376;DHT22;2202;50.866;12.750;2023-12-14T03:55:06;5.50;99.90
4376;DHT22;2202;50.866;12.750;2023-12-14T03:57:33;5.50;99.90
4376;DHT22;2202;50.866;12.750;2023-12-14T04:00:00;5.50;99.90
4376;DHT22;2202;50.866;12.750;2023-12-14T04:02:27;5.50;99.90
4376;DHT22;2202;50.866;12.750;2023-12-14T04:04:54;5.50;99.90
4376;DHT22;2202;50.866;12.750;2023-12-14T04:07:22;5.40;99.90
4376;DHT22;2202;50.866;12.750;2023-12-14T04:09:49;5.30;99.90
4376;DHT22;2202;50.866;12.750;2023-12-14T04:12:16;5.40;99.90
4376;DHT22;2202;50.866;12.750;2023-12-14T04:14:43;5.40;99.90
4376;DHT22;2202;50.866;12.750;2023-12-14T04:17:10;5.30;99.90
4376;DHT22;2202;50.866;12.750;2023-12-14T04:19:38;5.30;99.90
4376;DHT22;2202;50.866;12.750;2023-12-14T04:22:05;5.40;99.90
4376;DHT22;2202;50.866;12.750;2023-12-14T04:24:33;5.30;99.90
4376;DHT22;2202;50.866;12.750;2023-12-14T04:27:00;5.30;99.90
4376;DHT22;2202;50.866;12.750;2023-12-14T04:29:27;5.40;99.90
4376;DHT22;2202;50.866;12.750;2023-12-14T04:31:54;5.40;99.90
4376;DHT22;2202;50.866;12.750;2023-12-14T04:34:21;5.20;99.90
4376;DHT22;2202;50.866;12.750;2023-12-14T04:36:48;5.30;99.90
4376;DHT22;2202;50.866;12.750;2023-12-14T04:39:15;5.20;99.90
4376;DHT22;2202;50.866;12.750;2023-12-14T04:41:44;5.20;99.90
4376;DHT22;2202;50.866;12.750;2023-12-14T04:44:10;5.20;99.90
4376;DHT22;2202;50.866;12.750;2023-12-14T04:46:38;5.20;99.90
4376;DHT22;2202;50.866;12.750;2023-12-14T04:49:05;5.10;99.90
4376;DHT22;2202;50.866;12.750;2023-12-14T04:51:31;5.00;99.90
4376;DHT22;2202;50.866;12.750;2023-12-14T04:53:58;5.00;99.90
4376;DHT22;2202;50.866;12.750;2023-12-14T04:56:25;5.00;99.90
4376;DHT22;2202;50.866;12.750;2023-12-14T04:58:54;5.00;99.90
4376;DHT22;2202;50.866;12.750;2023-12-14T05:01:21;5.00;99.90
4376;DHT22;2202;50.866;12.750;2023-12-14T05:03:48;5.00;99.90
4376;DHT22;2202;50.866;12.750;2023-12-14T05:06:14;5.00;99.90
4376;DHT22;2202;50.866;12.750;2023-12-14T05:08:41;5.00;99.90
4376;DHT22;2202;50.866;12.750;2023-12-14T05:11:08;5.00;99.90
4376;DHT22;2202;50.866;12.750;2023-12-14T05:13:35;5.00;99.90
4376;DHT22;2202;50.866;12.750;2023-12-14T05:16:04;5.10;99.90
4376;DHT22;2202;50.866;12.750;2023-12-14T05:18:31;5.00;99.90
4376;DHT22;2202;50.866;12.750;2023-12-14T05:20:58;5.00;99.90
4376;DHT22;2202;50.866;12.750;2023-12-14T05:23:25;5.00;99.90
4376;DHT22;2202;50.866;12.750;2023-12-14T05:25:52;5.00;99.90
4376;DHT22;2202;50.866;12.750;2023-12-14T05:28:19;4.90;99.90
4376;DHT22;2202;50.866;12.750;2023-12-14T05:30:46;4.90;99.90
4376;DHT22;2202;50.866;12.750;2023-12-14T05:33:14;4.90;99.90
4376;DHT22;2202;50.866;12.750;2023-12-14T05:35:41;5.00;99.90
4376;DHT22;2202;50.866;12.750;2023-12-14T05:38:08;5.00;99.90
4376;DHT22;2202;50.866;12.750;2023-12-14T05:40:35;5.00;99.90
4376;DHT22;2202;50.866;12.750;2023-12-14T05:43:02;5.00;99.90
4376;DHT22;2202;50.866;12.750;2023-12-14T05:45:29;5.00;99.90
4376;DHT22;2202;50.866;12.750;2023-12-14T05:47:56;5.00;99.90
4376;DHT22;2202;50.866;12.750;2023-12-14T05:50:24;5.10;99.90
4376;DHT22;2202;50.866;12.750;2023-12-14T05:52:51;5.00;99.90
4376;DHT22;2202;50.866;12.750;2023-12-14T05:55:18;5.00;99.90
4376;DHT22;2202;50.866;12.750;2023-12-14T05:57:47;5.00;99.90
4376;DHT22;2202;50.866;12.750;2023-12-14T06:00:14;5.00;99.90
4376;DHT22;2202;50.866;12.750;2023-12-14T06:02:41;5.00;99.90
4376;DHT22;2202;50.866;12.750;2023-12-14T06:05:09;5.10;99.90
4376;DHT22;2202;50.866;12.750;2023-12-14T06:07:37;5.00;99.90
4376;DHT22;2202;50.866;12.750;2023-12-14T06:10:05;5.00;99.90
4376;DHT22;2202;50.866;12.750;2023-12-14T06:12:32;5.00;99.90
4376;DHT22;2202;50.866;12.750;2023-12-14T06:14:59;5.00;99.90
4376;DHT22;2202;50.866;12.750;2023-12-14T06:17:26;5.10;99.90
4376;DHT22;2202;50.866;12.750;2023-12-14T06:19:53;5.10;99.90
4376;DHT22;2202;50.866;12.750;2023-12-14T06:22:19;5.10;99.90
4376;DHT22;2202;50.866;12.750;2023-12-14T06:24:48;5.00;99.90
4376;DHT22;2202;50.866;12.750;2023-12-14T06:27:15;5.00;99.90
4376;DHT22;2202;50.866;12.750;2023-12-14T06:29:42;5.00;99.90
4376;DHT22;2202;50.866;12.750;2023-12-14T06:32:09;4.90;99.90
4376;DHT22;2202;50.866;12.750;2023-12-14T06:34:36;4.90;99.90
4376;DHT22;2202;50.866;12.750;2023-12-14T06:37:02;4.90;99.90
4376;DHT22;2202;50.866;12.750;2023-12-14T06:39:29;4.80;99.90
4376;DHT22;2202;50.866;12.750;2023-12-14T06:41:57;4.80;99.90
4376;DHT22;2202;50.866;12.750;2023-12-14T06:44:27;4.80;99.90
4376;DHT22;2202;50.866;12.750;2023-12-14T06:46:56;4.80;99.90
4376;DHT22;2202;50.866;12.750;2023-12-14T06:49:24;4.80;99.90
4376;DHT22;2202;50.866;12.750;2023-12-14T06:51:51;4.90;99.90
4376;DHT22;2202;50.866;12.750;2023-12-14T06:54:18;4.80;99.90
4376;DHT22;2202;50.866;12.750;2023-12-14T06:56:45;4.80;99.90
4376;DHT22;2202;50.866;12.750;2023-12-14T06:59:13;4.80;99.90
4376;DHT22;2202;50.866;12.750;2023-12-14T07:01:41;4.80;99.90
4376;DHT22;2202;50.866;12.750;2023-12-14T07:04:08;4.60;99.90
4376;DHT22;2202;50.866;12.750;2023-12-14T07:06:35;4.60;99.90
4376;DHT22;2202;50.866;12.750;2023-12-14T07:09:08;4.60;99.90
4376;DHT22;2202;50.866;12.750;2023-12-14T07:11:35;4.60;99.90
4376;DHT22;2202;50.866;12.750;2023-12-14T07:14:02;4.50;99.90
4376;DHT22;2202;50.866;12.750;2023-12-14T07:16:30;4.50;99.90
4376;DHT22;2202;50.866;12.750;2023-12-14T07:18:57;4.50;99.90
4376;DHT22;2202;50.866;12.750;2023-12-14T07:21:24;4.50;99.90
4376;DHT22;2202;50.866;12.750;2023-12-14T07:23:52;4.50;99.90
4376;DHT22;2202;50.866;12.750;2023-12-14T07:26:19;4.50;99.90
4376;DHT22;2202;50.866;12.750;2023-12-14T07:28:46;4.40;99.90
4376;DHT22;2202;50.866;12.750;2023-12-14T07:31:12;4.40;99.90
4376;DHT22;2202;50.866;12.750;2023-12-14T07:33:41;4.50;99.90
4376;DHT22;2202;50.866;12.750;2023-12-14T07:36:08;4.40;99.90
4376;DHT22;2202;50.866;12.750;2023-12-14T07:38:35;4.40;99.90
4376;DHT22;2202;50.866;12.750;2023-12-14T07:41:02;4.40;99.90
4376;DHT22;2202;50.866;12.750;2023-12-14T07:43:29;4.30;99.90
4376;DHT22;2202;50.866;12.750;2023-12-14T07:45:57;4.30;99.90
4376;DHT22;2202;50.866;12.750;2023-12-14T07:48:24;4.30;99.90
4376;DHT22;2202;50.866;12.750;2023-12-14T07:50:53;4.20;99.90
4376;DHT22;2202;50.866;12.750;2023-12-14T07:53:20;4.10;99.90
4376;DHT22;2202;50.866;12.750;2023-12-14T07:55:47;4.10;99.90
4376;DHT22;2202;50.866;12.750;2023-12-14T07:58:14;4.10;99.90
4376;DHT22;2202;50.866;12.750;2023-12-14T08:00:41;4.20;99.90
4376;DHT22;2202;50.866;12.750;2023-12-14T08:03:08;4.20;99.90
4376;DHT22;2202;50.866;12.750;2023-12-14T08:08:06;4.20;99.90
4376;DHT22;2202;50.866;12.750;2023-12-14T08:10:33;4.20;99.90
4376;DHT22;2202;50.866;12.750;2023-12-14T08:13:00;4.20;99.90
4376;DHT22;2202;50.866;12.750;2023-12-14T08:15:26;4.20;99.90
4376;DHT22;2202;50.866;12.750;2023-12-14T08:17:53;4.10;99.90
4376;DHT22;2202;50.866;12.750;2023-12-14T08:20:20;4.10;99.90
4376;DHT22;2202;50.866;12.750;2023-12-14T08:22:47;4.10;99.90
4376;DHT22;2202;50.866;12.750;2023-12-14T08:25:15;4.10;99.90
4376;DHT22;2202;50.866;12.750;2023-12-14T08:27:43;4.10;99.90
4376;DHT22;2202;50.866;12.750;2023-12-14T08:30:11;4.10;99.90
4376;DHT22;2202;50.866;12.750;2023-12-14T08:32:38;4.10;99.90
4376;DHT22;2202;50.866;12.750;2023-12-14T08:35:06;4.00;99.90
4376;DHT22;2202;50.866;12.750;2023-12-14T08:37:32;4.00;99.90
4376;DHT22;2202;50.866;12.750;2023-12-14T08:39:59;4.00;99.90
4376;DHT22;2202;50.866;12.750;2023-12-14T08:42:27;4.00;99.90
4376;DHT22;2202;50.866;12.750;2023-12-14T08:44:54;4.00;99.90
4376;DHT22;2202;50.866;12.750;2023-12-14T08:47:21;3.90;99.90
4376;DHT22;2202;50.866;12.750;2023-12-14T08:49:49;3.80;99.90
4376;DHT22;2202;50.866;12.750;2023-12-14T08:52:18;3.80;99.90
4376;DHT22;2202;50.866;12.750;2023-12-14T08:54:45;3.80;99.90
4376;DHT22;2202;50.866;12.750;2023-12-14T08:57:12;3.70;99.90
4376;DHT22;2202;50.866;12.750;2023-12-14T08:59:40;3.60;99.90
4376;DHT22;2202;50.866;12.750;2023-12-14T09:02:07;3.70;99.90
4376;DHT22;2202;50.866;12.750;2023-12-14T09:04:34;3.70;99.90
4376;DHT22;2202;50.866;12.750;2023-12-14T09:07:02;3.70;99.90
4376;DHT22;2202;50.866;12.750;2023-12-14T09:09:30;3.70;99.90
4376;DHT22;2202;50.866;12.750;2023-12-14T09:11:58;3.60;99.90
4376;DHT22;2202;50.866;12.750;2023-12-14T09:14:25;3.60;99.90
4376;DHT22;2202;50.866;12.750;2023-12-14T09:16:53;3.60;99.90
4376;DHT22;2202;50.866;12.750;2023-12-14T09:19:20;3.60;99.90
4376;DHT22;2202;50.866;12.750;2023-12-14T09:21:47;3.50;99.90
4376;DHT22;2202;50.866;12.750;2023-12-14T09:24:14;3.50;99.90
4376;DHT22;2202;50.866;12.750;2023-12-14T09:26:41;3.40;99.90
4376;DHT22;2202;50.866;12.750;2023-12-14T09:29:08;3.40;99.90
4376;DHT22;2202;50.866;12.750;2023-12-14T09:31:35;3.40;99.90
4376;DHT22;2202;50.866;12.750;2023-12-14T09:34:03;3.40;99.90
4376;DHT22;2202;50.866;12.750;2023-12-14T09:36:30;3.40;99.90
4376;DHT22;2202;50.866;12.750;2023-12-14T09:38:57;3.50;99.90
4376;DHT22;2202;50.866;12.750;2023-12-14T09:41:24;3.50;99.90
4376;DHT22;2202;50.866;12.750;2023-12-14T09:43:51;3.50;99.90
4376;DHT22;2202;50.866;12.750;2023-12-14T09:46:18;3.40;99.90
4376;DHT22;2202;50.866;12.750;2023-12-14T09:48:47;3.30;99.90
4376;DHT22;2202;50.866;12.750;2023-12-14T09:51:17;3.30;99.90
4376;DHT22;2202;50.866;12.750;2023-12-14T09:53:45;3.30;99.90
4376;DHT22;2202;50.866;12.750;2023-12-14T09:56:12;3.30;99.90
4376;DHT22;2202;50.866;12.750;2023-12-14T09:58:38;3.20;99.90
4376;DHT22;2202;50.866;12.750;2023-12-14T10:01:21;3.20;99.90
4376;DHT22;2202;50.866;12.750;2023-12-14T10:03:47;3.20;99.90
4376;DHT22;2202;50.866;12.750;2023-12-14T10:06:14;3.10;99.90
4376;DHT22;2202;50.866;12.750;2023-12-14T10:08:54;3.10;99.90
4376;DHT22;2202;50.866;12.750;2023-12-14T10:11:21;3.00;99.90
4376;DHT22;2202;50.866;12.750;2023-12-14T10:13:48;3.00;99.90
4376;DHT22;2202;50.866;12.750;2023-12-14T10:16:27;3.00;99.90
4376;DHT22;2202;50.866;12.750;2023-12-14T10:18:55;3.00;99.90
4376;DHT22;2202;50.866;12.750;2023-12-14T10:21:22;3.00;99.90
4376;DHT22;2202;50.866;12.750;2023-12-14T10:23:51;3.00;99.90
4376;DHT22;2202;50.866;12.750;2023-12-14T10:26:18;2.90;99.90
4376;DHT22;2202;50.866;12.750;2023-12-14T10:28:44;3.00;99.90
4376;DHT22;2202;50.866;12.750;2023-12-14T10:31:12;3.00;99.90
4376;DHT22;2202;50.866;12.750;2023-12-14T10:33:38;2.90;99.90
4376;DHT22;2202;50.866;12.750;2023-12-14T10:36:06;2.90;99.90
4376;DHT22;2202;50.866;12.750;2023-12-14T10:38:36;3.00;99.90
4376;DHT22;2202;50.866;12.750;2023-12-14T10:41:05;3.00;99.90
4376;DHT22;2202;50.866;12.750;2023-12-14T10:43:36;3.10;99.90
4376;DHT22;2202;50.866;12.750;2023-12-14T10:46:05;3.10;99.90
4376;DHT22;2202;50.866;12.750;2023-12-14T10:48:35;3.10;99.90
4376;DHT22;2202;50.866;12.750;2023-12-14T10:51:03;3.10;99.90
4376;DHT22;2202;50.866;12.750;2023-12-14T10:53:31;3.10;99.90
4376;DHT22;2202;50.866;12.750;2023-12-14T10:55:59;3.10;99.90
4376;DHT22;2202;50.866;12.750;2023-12-14T10:58:44;3.10;99.90
4376;DHT22;2202;50.866;12.750;2023-12-14T11:01:14;3.10;99.90
4376;DHT22;2202;50.866;12.750;2023-12-14T11:03:42;3.10;99.90
4376;DHT22;2202;50.866;12.750;2023-12-14T11:06:29;3.10;99.90
4376;DHT22;2202;50.866;12.750;2023-12-14T11:08:58;3.20;99.90
4376;DHT22;2202;50.866;12.750;2023-12-14T11:11:28;3.10;99.90
4376;DHT22;2202;50.866;12.750;2023-12-14T11:13:56;3.00;99.90
4376;DHT22;2202;50.866;12.750;2023-12-14T11:16:26;2.80;99.90
4376;DHT22;2202;50.866;12.750;2023-12-14T11:19:24;2.80;99.90
4376;DHT22;2202;50.866;12.750;2023-12-14T11:22:11;2.80;99.90
4376;DHT22;2202;50.866;12.750;2023-12-14T11:24:51;2.90;99.90
4376;DHT22;2202;50.866;12.750;2023-12-14T11:27:20;2.90;99.90
4376;DHT22;2202;50.866;12.750;2023-12-14T11:29:53;2.90;99.90
4376;DHT22;2202;50.866;12.750;2023-12-14T11:32:20;3.00;99.90
4376;DHT22;2202;50.866;12.750;2023-12-14T11:34:47;3.00;99.90
4376;DHT22;2202;50.866;12.750;2023-12-14T11:37:14;3.10;99.90
4376;DHT22;2202;50.866;12.750;2023-12-14T11:39:41;3.20;99.90
4376;DHT22;2202;50.866;12.750;2023-12-14T11:42:09;3.10;99.90
4376;DHT22;2202;50.866;12.750;2023-12-14T11:44:37;3.00;99.90
4376;DHT22;2202;50.866;12.750;2023-12-14T11:47:05;3.00;99.90
4376;DHT22;2202;50.866;12.750;2023-12-14T11:49:32;3.10;99.90
4376;DHT22;2202;50.866;12.750;2023-12-14T11:52:02;2.90;99.90
4376;DHT22;2202;50.866;12.750;2023-12-14T11:54:29;2.90;99.90
4376;DHT22;2202;50.866;12.750;2023-12-14T11:56:56;2.90;99.90
4376;DHT22;2202;50.866;12.750;2023-12-14T11:59:23;3.00;99.90
4376;DHT22;2202;50.866;12.750;2023-12-14T12:01:57;3.00;99.90
4376;DHT22;2202;50.866;12.750;2023-12-14T12:04:26;2.90;99.90
4376;DHT22;2202;50.866;12.750;2023-12-14T12:07:03;3.00;99.90
4376;DHT22;2202;50.866;12.750;2023-12-14T12:09:37;3.00;99.90
4376;DHT22;2202;50.866;12.750;2023-12-14T12:12:09;2.90;99.90
4376;DHT22;2202;50.866;12.750;2023-12-14T12:14:36;2.80;99.90
4376;DHT22;2202;50.866;12.750;2023-12-14T12:17:04;2.80;99.90
4376;DHT22;2202;50.866;12.750;2023-12-14T12:19:33;2.70;99.90
4376;DHT22;2202;50.866;12.750;2023-12-14T12:22:00;2.70;99.90
4376;DHT22;2202;50.866;12.750;2023-12-14T12:24:27;2.70;99.90
4376;DHT22;2202;50.866;12.750;2023-12-14T12:26:54;2.70;99.90
4376;DHT22;2202;50.866;12.750;2023-12-14T12:29:21;2.70;99.90
4376;DHT22;2202;50.866;12.750;2023-12-14T12:31:48;2.70;99.90
4376;DHT22;2202;50.866;12.750;2023-12-14T12:34:15;2.70;99.90
4376;DHT22;2202;50.866;12.750;2023-12-14T12:36:43;2.70;99.90
4376;DHT22;2202;50.866;12.750;2023-12-14T12:39:10;2.60;99.90
4376;DHT22;2202;50.866;12.750;2023-12-14T12:41:37;2.50;99.90
4376;DHT22;2202;50.866;12.750;2023-12-14T12:44:05;2.60;99.90
4376;DHT22;2202;50.866;12.750;2023-12-14T12:46:33;2.60;99.90
4376;DHT22;2202;50.866;12.750;2023-12-14T12:49:01;2.50;99.90
4376;DHT22;2202;50.866;12.750;2023-12-14T12:51:28;2.60;99.90
4376;DHT22;2202;50.866;12.750;2023-12-14T12:53:57;2.60;99.90
4376;DHT22;2202;50.866;12.750;2023-12-14T12:56:25;2.60;99.90
4376;DHT22;2202;50.866;12.750;2023-12-14T12:58:52;2.50;99.90
4376;DHT22;2202;50.866;12.750;2023-12-14T13:01:20;2.60;99.90
4376;DHT22;2202;50.866;12.750;2023-12-14T13:03:51;2.60;99.90
4376;DHT22;2202;50.866;12.750;2023-12-14T13:06:18;2.60;99.90
4376;DHT22;2202;50.866;12.750;2023-12-14T13:08:45;2.70;99.90
4376;DHT22;2202;50.866;12.750;2023-12-14T13:11:13;2.50;99.90
4376;DHT22;2202;50.866;12.750;2023-12-14T13:13:40;2.50;99.90
4376;DHT22;2202;50.866;12.750;2023-12-14T13:16:09;2.60;99.90
4376;DHT22;2202;50.866;12.750;2023-12-14T13:18:36;2.50;99.90
4376;DHT22;2202;50.866;12.750;2023-12-14T13:21:03;2.50;99.90
4376;DHT22;2202;50.866;12.750;2023-12-14T13:23:30;2.40;99.90
4376;DHT22;2202;50.866;12.750;2023-12-14T13:25:57;2.40;99.90
4376;DHT22;2202;50.866;12.750;2023-12-14T13:28:25;2.50;99.90
4376;DHT22;2202;50.866;12.750;2023-12-14T13:30:52;2.40;99.90
4376;DHT22;2202;50.866;12.750;2023-12-14T13:33:19;2.40;99.90
4376;DHT22;2202;50.866;12.750;2023-12-14T13:35:46;2.40;99.90
4376;DHT22;2202;50.866;12.750;2023-12-14T13:38:13;2.30;99.90
4376;DHT22;2202;50.866;12.750;2023-12-14T13:40:41;2.40;99.90
4376;DHT22;2202;50.866;12.750;2023-12-14T13:43:07;2.40;99.90
4376;DHT22;2202;50.866;12.750;2023-12-14T13:45:38;2.40;99.90
4376;DHT22;2202;50.866;12.750;2023-12-14T13:48:05;2.50;99.90
4376;DHT22;2202;50.866;12.750;2023-12-14T13:50:33;2.50;99.90
4376;DHT22;2202;50.866;12.750;2023-12-14T13:53:00;2.50;99.90
4376;DHT22;2202;50.866;12.750;2023-12-14T13:55:27;2.60;99.90
4376;DHT22;2202;50.866;12.750;2023-12-14T13:57:54;2.50;99.90
4376;DHT22;2202;50.866;12.750;2023-12-14T14:00:23;2.50;99.90
4376;DHT22;2202;50.866;12.750;2023-12-14T14:02:51;2.50;99.90
4376;DHT22;2202;50.866;12.750;2023-12-14T14:05:18;2.40;99.90
4376;DHT22;2202;50.866;12.750;2023-12-14T14:07:45;2.50;99.90
4376;DHT22;2202;50.866;12.750;2023-12-14T14:10:13;2.50;99.90
4376;DHT22;2202;50.866;12.750;2023-12-14T14:12:40;2.50;99.90
4376;DHT22;2202;50.866;12.750;2023-12-14T14:15:08;2.60;99.90
4376;DHT22;2202;50.866;12.750;2023-12-14T14:17:35;2.70;99.90
4376;DHT22;2202;50.866;12.750;2023-12-14T14:20:04;2.70;99.90
4376;DHT22;2202;50.866;12.750;2023-12-14T14:22:32;2.80;99.90
4376;DHT22;2202;50.866;12.750;2023-12-14T14:24:59;2.80;99.90
4376;DHT22;2202;50.866;12.750;2023-12-14T14:27:26;2.60;99.90
4376;DHT22;2202;50.866;12.750;2023-12-14T14:29:54;2.60;99.90
4376;DHT22;2202;50.866;12.750;2023-12-14T14:32:21;2.60;99.90
4376;DHT22;2202;50.866;12.750;2023-12-14T14:34:48;2.60;99.90
4376;DHT22;2202;50.866;12.750;2023-12-14T14:37:17;2.60;99.90
4376;DHT22;2202;50.866;12.750;2023-12-14T14:39:44;2.50;99.90
4376;DHT22;2202;50.866;12.750;2023-12-14T14:42:11;2.50;99.90
4376;DHT22;2202;50.866;12.750;2023-12-14T14:44:39;2.60;99.90
4376;DHT22;2202;50.866;12.750;2023-12-14T14:47:06;2.50;99.90
4376;DHT22;2202;50.866;12.750;2023-12-14T14:49:33;2.50;99.90
4376;DHT22;2202;50.866;12.750;2023-12-14T14:52:00;2.50;99.90
4376;DHT22;2202;50.866;12.750;2023-12-14T14:54:28;2.50;99.90
4376;DHT22;2202;50.866;12.750;2023-12-14T14:56:55;2.50;99.90
4376;DHT22;2202;50.866;12.750;2023-12-14T14:59:22;2.40;99.90
4376;DHT22;2202;50.866;12.750;2023-12-14T15:01:49;2.40;99.90
4376;DHT22;2202;50.866;12.750;2023-12-14T15:04:16;2.50;99.90
4376;DHT22;2202;50.866;12.750;2023-12-14T15:06:43;2.40;99.90
4376;DHT22;2202;50.866;12.750;2023-12-14T15:09:10;2.30;99.90
4376;DHT22;2202;50.866;12.750;2023-12-14T15:11:39;2.30;99.90
4376;DHT22;2202;50.866;12.750;2023-12-14T15:14:07;2.30;99.90
4376;DHT22;2202;50.866;12.750;2023-12-14T15:16:34;2.20;99.90
4376;DHT22;2202;50.866;12.750;2023-12-14T15:19:01;2.20;99.90
4376;DHT22;2202;50.866;12.750;2023-12-14T15:21:28;2.30;99.90
4376;DHT22;2202;50.866;12.750;2023-12-14T15:23:55;2.30;99.90
4376;DHT22;2202;50.866;12.750;2023-12-14T15:26:22;2.30;99.90
4376;DHT22;2202;50.866;12.750;2023-12-14T15:28:50;2.20;99.90
4376;DHT22;2202;50.866;12.750;2023-12-14T15:31:17;2.20;99.90
4376;DHT22;2202;50.866;12.750;2023-12-14T15:33:44;2.30;99.90
4376;DHT22;2202;50.866;12.750;2023-12-14T15:36:11;2.30;99.90
4376;DHT22;2202;50.866;12.750;2023-12-14T15:38:38;2.30;99.90
4376;DHT22;2202;50.866;12.750;2023-12-14T15:41:06;2.20;99.90
4376;DHT22;2202;50.866;12.750;2023-12-14T15:43:33;2.30;99.90
4376;DHT22;2202;50.866;12.750;2023-12-14T15:46:01;2.30;99.90
4376;DHT22;2202;50.866;12.750;2023-12-14T15:48:28;2.30;99.90
4376;DHT22;2202;50.866;12.750;2023-12-14T15:50:55;2.30;99.90
4376;DHT22;2202;50.866;12.750;2023-12-14T15:53:22;2.20;99.90
4376;DHT22;2202;50.866;12.750;2023-12-14T15:55:49;2.20;99.90
4376;DHT22;2202;50.866;12.750;2023-12-14T15:58:16;2.20;99.90
4376;DHT22;2202;50.866;12.750;2023-12-14T16:00:43;2.30;99.90
4376;DHT22;2202;50.866;12.750;2023-12-14T16:03:11;2.30;99.90
4376;DHT22;2202;50.866;12.750;2023-12-14T16:05:38;2.30;99.90
4376;DHT22;2202;50.866;12.750;2023-12-14T16:08:06;2.40;99.90